KFLD/FLD METAR and TAF weather

Enter ICAO airport designator
Station Type Date Time Source
KFLD METAR 2023/02/04 01:53 UTC NOAA

KFLD 040153Z AUTO 18007KT 10SM BKN075 OVC100 M16/M23 A3048 RMK AO2 SLP347 T11561228


Station Type Date Time Source
KFLD Decoded METAR 2023/02/04 01:53 UTC NOAA

FOND DU LAC COUNTY AIRPORT, WI, United States (KFLD) 43-46N 88-29W 240M
Feb 03, 2023 - 08:53 PM EST / 2023.02.04 0153 UTC
Wind: from the S (180 degrees) at 8 MPH (7 KT):0
Visibility: 10 mile(s):0
Sky conditions: overcast
Temperature: 3.9 F (-15.6 C)
Windchill: -9 F (-23 C):2
Dew Point: -9.0 F (-22.8 C)
Relative Humidity: 53%
Pressure (altimeter): 30.48 in. Hg (1032 hPa)
ob: KFLD 040153Z AUTO 18007KT 10SM BKN075 OVC100 M16/M23 A3048 RMK AO2 SLP347 T11561228
cycle: 2

Station Type Date Time Source
KFLD TAF UTC NOAA

Error!

Example: see airport list